Integrity — WDF4881 — position and weather

sailwx.info

Track history (hours):
 
Tides and Currents Weather Stations Pressure Air Temp Water Temp Dewpoint Dewpoint Depression Visibility Wind Speed Wind Dir Waves Ship Positions

Integrity

More information available from US FCC via Universal Licensing System and Coast Guard Vessel Documentation Center.

Last reported at 2014-Jul-24 15:11 UTC. Time now 2014-Jul-25 08:57 UTC.
Position N 29°26' W 094°50'.

Length 19 m; draft 2.8 m.

Type: Towing. MMSI: 367456830.

Date/timePositionNaut miles runAvg speedWind from/ knotsBaromVisibWave heightAir tempDewpointWater temp
2014-Jul-24 15:11N 29°26' W 094°50'5 7.4
2014-Jul-24 14:33N 29°30' W 094°52'7 7.3
2014-Jul-24 13:33N 29°36' W 094°57'7 7.2
2014-Jul-24 12:33N 29°42' W 095°01'5 5.3
2014-Jul-24 11:33N 29°45' W 095°06'6 6.0
2014-Jul-24 10:33N 29°43' W 095°13'2 2.0
2014-Jul-24 09:33N 29°43' W 095°15'0 0.0
2014-Jul-24 08:33N 29°43' W 095°15'0 0.0
2014-Jul-24 07:33N 29°43' W 095°15'0 0.0
2014-Jul-24 06:33N 29°43' W 095°15'0 0.0
2014-Jul-24 05:33N 29°43' W 095°15'0 0.0
2014-Jul-24 04:33N 29°43' W 095°15'0 0.0
2014-Jul-24 03:33N 29°43' W 095°15'0 0.0
2014-Jul-24 02:33N 29°43' W 095°15'0 0.1
2014-Jul-24 01:33N 29°43' W 095°15'0 0.0
2014-Jul-24 00:33N 29°43' W 095°15'0 0.0
2014-Jul-23 23:33N 29°43' W 095°15'0 0.0
2014-Jul-23 22:33N 29°43' W 095°15'0 0.0
2014-Jul-23 21:33N 29°43' W 095°15'0 0.0
2014-Jul-23 20:33N 29°43' W 095°15'0 0.0
2014-Jul-23 19:33N 29°43' W 095°15'0 0.0
2014-Jul-23 18:33N 29°43' W 095°15'0 0.0
2014-Jul-23 17:33N 29°43' W 095°15'0 0.0
2014-Jul-23 16:33N 29°43' W 095°15'0 0.0
2014-Jul-23 15:33N 29°43' W 095°15'0 0.0
2014-Jul-23 14:33N 29°43' W 095°15'0 0.0
2014-Jul-23 13:33N 29°43' W 095°15'0 0.0
2014-Jul-23 12:33N 29°43' W 095°15'0 0.0
2014-Jul-23 11:33N 29°43' W 095°15'0 0.0
2014-Jul-23 10:33N 29°43' W 095°15'0 0.0
2014-Jul-23 09:33N 29°43' W 095°15'0 0.1
2014-Jul-23 08:33N 29°43' W 095°15'0 0.1
2014-Jul-23 07:33N 29°43' W 095°15'0 0.0
2014-Jul-23 06:33N 29°43' W 095°15'0 0.0
2014-Jul-23 05:33N 29°43' W 095°15'0 0.0
2014-Jul-23 04:33N 29°43' W 095°15'0 0.0
2014-Jul-23 03:33N 29°43' W 095°15'0 0.0
2014-Jul-23 02:33N 29°43' W 095°15'0 0.0
2014-Jul-23 01:33N 29°43' W 095°15'0 0.0
2014-Jul-23 00:33N 29°43' W 095°15'0 0.0
2014-Jul-22 23:33N 29°43' W 095°15'0 0.1
2014-Jul-22 22:33N 29°43' W 095°15'3 3.2
2014-Jul-22 21:33N 29°45' W 095°12'4 4.0
2014-Jul-22 20:33N 29°44' W 095°07'4 3.9
2014-Jul-22 19:33N 29°47' W 095°04'1 0.6
2014-Jul-22 18:33N 29°47' W 095°04'5 5.3
2014-Jul-22 17:33N 29°44' W 095°09'6 5.7
2014-Jul-22 16:33N 29°43' W 095°15'0 0.2
2014-Jul-22 15:33N 29°43' W 095°15'0 0.0
2014-Jul-22 14:33N 29°43' W 095°15'2 1.8
2014-Jul-22 13:33N 29°43' W 095°13'6 5.8
2014-Jul-22 12:33N 29°45' W 095°07'4 3.8
2014-Jul-22 11:33N 29°47' W 095°04'1 1.1
2014-Jul-22 10:32N 29°47' W 095°05'1 0.4
2014-Jul-22 07:30N 29°46' W 095°06'0 0.0
2014-Jul-22 05:27N 29°46' W 095°06'0 0.0
2014-Jul-22 04:23N 29°46' W 095°06'0 0.0
2014-Jul-22 03:20N 29°46' W 095°06'0 0.0
2014-Jul-22 02:27N 29°46' W 095°06'0 0.0
2014-Jul-21 23:31N 29°46' W 095°06'0 0.0
2014-Jul-21 21:33N 29°46' W 095°06'0 0.0
2014-Jul-21 20:12N 29°46' W 095°06'0 0.0
2014-Jul-21 19:33N 29°46' W 095°06'2 1.6
2014-Jul-21 18:33N 29°47' W 095°04'3 3.3
2014-Jul-21 17:33N 29°44' W 095°03'6 5.6
2014-Jul-21 16:33N 29°40' W 094°58'7 6.8
2014-Jul-21 15:33N 29°34' W 094°55'  
Track history (hours):
 
Tides and Currents Weather Stations Pressure Air Temp Water Temp Dewpoint Dewpoint Depression Visibility Wind Speed Wind Dir Waves Ship Positions

Integrity

More information available from US FCC via Universal Licensing System and Coast Guard Vessel Documentation Center.

Last reported at 2014-Jul-24 15:11 UTC. Time now 2014-Jul-25 08:57 UTC.
Position N 29°26' W 094°50'.

Length 19 m; draft 2.8 m.

Type: Towing. MMSI: 367456830.

Date/timePositionNaut miles runAvg speedWind from/ knotsBaromVisibWave heightAir tempDewpointWater temp
2014-Jul-24 15:11N 29°26' W 094°50'5 7.4
2014-Jul-24 14:33N 29°30' W 094°52'7 7.3
2014-Jul-24 13:33N 29°36' W 094°57'7 7.2
2014-Jul-24 12:33N 29°42' W 095°01'5 5.3
2014-Jul-24 11:33N 29°45' W 095°06'6 6.0
2014-Jul-24 10:33N 29°43' W 095°13'2 2.0
2014-Jul-24 09:33N 29°43' W 095°15'0 0.0
2014-Jul-24 08:33N 29°43' W 095°15'0 0.0
2014-Jul-24 07:33N 29°43' W 095°15'0 0.0
2014-Jul-24 06:33N 29°43' W 095°15'0 0.0
2014-Jul-24 05:33N 29°43' W 095°15'0 0.0
2014-Jul-24 04:33N 29°43' W 095°15'0 0.0
2014-Jul-24 03:33N 29°43' W 095°15'0 0.0
2014-Jul-24 02:33N 29°43' W 095°15'0 0.1
2014-Jul-24 01:33N 29°43' W 095°15'0 0.0
2014-Jul-24 00:33N 29°43' W 095°15'0 0.0
2014-Jul-23 23:33N 29°43' W 095°15'0 0.0
2014-Jul-23 22:33N 29°43' W 095°15'0 0.0
2014-Jul-23 21:33N 29°43' W 095°15'0 0.0
2014-Jul-23 20:33N 29°43' W 095°15'0 0.0
2014-Jul-23 19:33N 29°43' W 095°15'0 0.0
2014-Jul-23 18:33N 29°43' W 095°15'0 0.0
2014-Jul-23 17:33N 29°43' W 095°15'0 0.0
2014-Jul-23 16:33N 29°43' W 095°15'0 0.0
2014-Jul-23 15:33N 29°43' W 095°15'0 0.0
2014-Jul-23 14:33N 29°43' W 095°15'0 0.0
2014-Jul-23 13:33N 29°43' W 095°15'0 0.0
2014-Jul-23 12:33N 29°43' W 095°15'0 0.0
2014-Jul-23 11:33N 29°43' W 095°15'0 0.0
2014-Jul-23 10:33N 29°43' W 095°15'0 0.0
2014-Jul-23 09:33N 29°43' W 095°15'0 0.1
2014-Jul-23 08:33N 29°43' W 095°15'0 0.1
2014-Jul-23 07:33N 29°43' W 095°15'0 0.0
2014-Jul-23 06:33N 29°43' W 095°15'0 0.0
2014-Jul-23 05:33N 29°43' W 095°15'0 0.0
2014-Jul-23 04:33N 29°43' W 095°15'0 0.0
2014-Jul-23 03:33N 29°43' W 095°15'0 0.0
2014-Jul-23 02:33N 29°43' W 095°15'0 0.0
2014-Jul-23 01:33N 29°43' W 095°15'0 0.0
2014-Jul-23 00:33N 29°43' W 095°15'0 0.0
2014-Jul-22 23:33N 29°43' W 095°15'0 0.1
2014-Jul-22 22:33N 29°43' W 095°15'3 3.2
2014-Jul-22 21:33N 29°45' W 095°12'4 4.0
2014-Jul-22 20:33N 29°44' W 095°07'4 3.9
2014-Jul-22 19:33N 29°47' W 095°04'1 0.6
2014-Jul-22 18:33N 29°47' W 095°04'5 5.3
2014-Jul-22 17:33N 29°44' W 095°09'6 5.7
2014-Jul-22 16:33N 29°43' W 095°15'0 0.2
2014-Jul-22 15:33N 29°43' W 095°15'0 0.0
2014-Jul-22 14:33N 29°43' W 095°15'2 1.8
2014-Jul-22 13:33N 29°43' W 095°13'6 5.8
2014-Jul-22 12:33N 29°45' W 095°07'4 3.8
2014-Jul-22 11:33N 29°47' W 095°04'1 1.1
2014-Jul-22 10:32N 29°47' W 095°05'1 0.4
2014-Jul-22 07:30N 29°46' W 095°06'0 0.0
2014-Jul-22 05:27N 29°46' W 095°06'0 0.0
2014-Jul-22 04:23N 29°46' W 095°06'0 0.0
2014-Jul-22 03:20N 29°46' W 095°06'0 0.0
2014-Jul-22 02:27N 29°46' W 095°06'0 0.0
2014-Jul-21 23:31N 29°46' W 095°06'0 0.0
2014-Jul-21 21:33N 29°46' W 095°06'0 0.0
2014-Jul-21 20:12N 29°46' W 095°06'0 0.0
2014-Jul-21 19:33N 29°46' W 095°06'2 1.6
2014-Jul-21 18:33N 29°47' W 095°04'3 3.3
2014-Jul-21 17:33N 29°44' W 095°03'6 5.6
2014-Jul-21 16:33N 29°40' W 094°58'7 6.8
2014-Jul-21 15:33N 29°34' W 094°55'  

Dump ship's entire track history